Time;durP1;ratioP1;P1;durP2;ratioP2;P2;SDS_P1;SDS_P2;PMS_P1;PMS_P2;Temp;Humidity;BMP_temperature;BMP_pressure;BME280_temperature;BME280_humidity;BME280_pressure;Samples;Min_cycle;Max_cycle;Signal;HPM_P1;HPM_P2
2024/01/04 00:01:01;;;;;;;1.00;0.70;;;11.50;1.00;;;;;;5175979;28;20314;-32
2024/01/04 00:03:35;;;;;;;0.70;0.70;;;11.50;1.00;;;;;;5192968;28;20033;-31
2024/01/04 00:06:09;;;;;;;0.70;0.70;;;11.50;1.00;;;;;;5205663;28;20029;-32
2024/01/04 00:08:45;;;;;;;0.85;0.85;;;11.50;1.00;;;;;;5206125;28;20029;-31
2024/01/04 00:11:18;;;;;;;1.95;1.00;;;11.50;1.00;;;;;;5203377;28;20017;-31
2024/01/04 00:13:52;;;;;;;1.40;1.30;;;11.50;1.00;;;;;;5193850;28;20030;-31
2024/01/04 00:16:23;;;;;;;0.75;0.75;;;11.50;1.00;;;;;;5200426;28;20033;-31
2024/01/04 00:18:54;;;;;;;0.63;0.63;;;11.50;1.00;;;;;;5206140;28;20348;-30
2024/01/04 00:21:28;;;;;;;1.23;0.82;;;11.50;1.00;;;;;;5191110;28;20029;-31
2024/01/04 00:24:03;;;;;;;1.25;1.25;;;11.30;1.00;;;;;;5193656;28;20047;-33
2024/01/04 00:26:34;;;;;;;0.82;0.82;;;11.40;1.00;;;;;;5201418;28;20037;-30
2024/01/04 00:29:05;;;;;;;0.85;0.85;;;11.30;1.00;;;;;;5205736;28;20038;-33
2024/01/04 00:31:36;;;;;;;1.52;0.98;;;11.40;1.00;;;;;;5202696;28;20033;-34
2024/01/04 00:34:10;;;;;;;0.77;0.77;;;11.40;1.00;;;;;;5203858;28;20368;-33
2024/01/04 00:36:44;;;;;;;0.63;0.63;;;11.30;1.00;;;;;;5206010;28;20326;-32
2024/01/04 00:39:15;;;;;;;0.88;0.88;;;11.30;1.00;;;;;;5204735;28;20029;-32
2024/01/04 00:41:46;;;;;;;0.55;0.55;;;11.10;1.00;;;;;;5206302;28;20377;-32
2024/01/04 00:44:18;;;;;;;0.50;0.50;;;11.10;1.00;;;;;;5195698;28;20033;-32
2024/01/04 00:46:49;;;;;;;0.60;0.60;;;11.20;1.00;;;;;;5194130;28;20221;-32
2024/01/04 00:49:20;;;;;;;0.77;0.77;;;11.30;1.00;;;;;;5194405;28;20022;-31
2024/01/04 00:51:56;;;;;;;0.80;0.80;;;11.40;1.00;;;;;;5204954;28;20028;-31
2024/01/04 00:54:27;;;;;;;2.22;1.00;;;11.30;1.00;;;;;;5192546;28;20213;-31
2024/01/04 00:56:59;;;;;;;0.70;0.70;;;11.30;1.00;;;;;;5202364;28;20033;-33
2024/01/04 00:59:30;;;;;;;0.70;0.70;;;11.30;1.00;;;;;;5188646;28;20340;-31
2024/01/04 01:02:01;;;;;;;1.17;1.10;;;11.30;1.00;;;;;;5201005;28;20333;-30
2024/01/04 01:04:32;;;;;;;0.73;0.73;;;11.20;1.00;;;;;;5205968;28;20355;-31
2024/01/04 01:07:04;;;;;;;0.77;0.77;;;11.10;1.00;;;;;;5208543;28;20029;-30
2024/01/04 01:09:35;;;;;;;0.68;0.65;;;11.10;1.00;;;;;;5199483;28;20025;-30
2024/01/04 01:12:09;;;;;;;0.57;0.57;;;11.20;1.00;;;;;;5205183;28;20028;-30
2024/01/04 01:14:41;;;;;;;0.70;0.70;;;11.20;1.00;;;;;;5207187;28;20017;-32
2024/01/04 01:17:14;;;;;;;0.50;0.50;;;11.20;1.00;;;;;;5198916;28;20037;-32
2024/01/04 01:19:48;;;;;;;0.80;0.80;;;11.10;1.00;;;;;;5210509;28;20040;-32
2024/01/04 01:22:24;;;;;;;0.93;0.93;;;10.90;1.00;;;;;;5192389;28;20047;-32
2024/01/04 01:24:57;;;;;;;0.70;0.70;;;10.80;1.00;;;;;;5214158;28;20355;-32
2024/01/04 01:27:28;;;;;;;1.27;1.17;;;10.90;1.00;;;;;;5211457;28;20043;-32
2024/01/04 01:29:59;;;;;;;0.60;0.60;;;11.00;1.00;;;;;;5204024;28;20180;-32
2024/01/04 01:32:33;;;;;;;0.60;0.60;;;11.20;1.00;;;;;;5203636;28;20021;-32
2024/01/04 01:35:08;;;;;;;1.33;1.00;;;11.20;1.00;;;;;;5197823;28;20034;-31
2024/01/04 01:37:42;;;;;;;0.80;0.80;;;11.30;1.00;;;;;;5202651;28;20037;-31
2024/01/04 01:40:19;;;;;;;0.88;0.88;;;11.30;1.00;;;;;;5209339;28;20356;-32
2024/01/04 01:42:50;;;;;;;0.70;0.70;;;11.40;1.00;;;;;;5208305;28;20064;-32
2024/01/04 01:45:25;;;;;;;0.70;0.70;;;11.40;1.00;;;;;;5212883;28;20316;-32
2024/01/04 01:47:59;;;;;;;0.77;0.77;;;11.40;1.00;;;;;;5211180;28;20029;-32
2024/01/04 01:50:32;;;;;;;1.10;1.10;;;11.40;1.00;;;;;;5208679;28;20026;-32
2024/01/04 01:53:03;;;;;;;0.95;0.75;;;11.30;1.00;;;;;;5193926;28;20041;-32
2024/01/04 01:55:35;;;;;;;1.00;1.00;;;11.20;1.00;;;;;;5199888;28;20040;-35
2024/01/04 01:58:15;;;;;;;1.08;1.00;;;11.20;1.00;;;;;;5170321;28;20037;-32
2024/01/04 02:00:50;;;;;;;0.75;0.63;;;11.20;1.00;;;;;;5202810;28;20033;-32
2024/01/04 02:03:22;;;;;;;1.00;0.75;;;11.30;1.00;;;;;;5199087;28;20055;-32
2024/01/04 02:05:55;;;;;;;0.80;0.80;;;11.30;1.00;;;;;;5208444;28;20036;-32
2024/01/04 02:08:29;;;;;;;0.60;0.60;;;11.40;1.00;;;;;;5207172;28;20041;-32
2024/01/04 02:11:00;;;;;;;0.80;0.80;;;11.40;1.00;;;;;;5208273;28;20021;-32
2024/01/04 02:13:31;;;;;;;0.73;0.73;;;11.50;1.00;;;;;;5209010;28;20035;-32
2024/01/04 02:16:05;;;;;;;1.23;1.15;;;11.40;1.00;;;;;;5200175;28;20026;-32
2024/01/04 02:18:37;;;;;;;0.70;0.70;;;11.30;1.00;;;;;;5199322;28;20032;-31
2024/01/04 02:21:11;;;;;;;0.60;0.60;;;11.30;1.00;;;;;;5174074;28;20041;-31
2024/01/04 02:23:42;;;;;;;0.85;0.80;;;11.40;1.00;;;;;;5208680;28;20321;-31
2024/01/04 02:26:16;;;;;;;0.60;0.60;;;11.40;1.00;;;;;;5205202;28;20041;-32
2024/01/04 02:28:53;;;;;;;0.63;0.63;;;11.40;1.00;;;;;;5175721;28;20044;-31
2024/01/04 02:31:28;;;;;;;0.65;0.65;;;11.50;1.00;;;;;;5166829;28;20033;-31
2024/01/04 02:34:00;;;;;;;2.50;0.60;;;11.50;1.00;;;;;;5178570;28;20021;-33
2024/01/04 02:36:46;;;;;;;0.65;0.65;;;11.50;1.00;;;;;;5190014;28;20021;-32
2024/01/04 02:39:17;;;;;;;0.63;0.63;;;11.30;1.00;;;;;;5176270;28;20021;-33
2024/01/04 02:41:51;;;;;;;0.60;0.60;;;11.30;1.00;;;;;;5190098;28;20033;-33
2024/01/04 02:44:22;;;;;;;0.70;0.70;;;11.20;1.00;;;;;;5207567;28;20025;-33
2024/01/04 02:46:56;;;;;;;0.57;0.57;;;11.20;1.00;;;;;;5203498;28;20377;-32
2024/01/04 02:49:30;;;;;;;0.80;0.80;;;11.20;1.00;;;;;;5206997;28;20044;-32
2024/01/04 02:52:04;;;;;;;0.68;0.68;;;11.10;1.00;;;;;;5206652;28;20309;-32
2024/01/04 02:54:37;;;;;;;0.82;0.82;;;11.10;1.00;;;;;;5200594;28;20469;-32
2024/01/04 02:57:09;;;;;;;0.80;0.80;;;11.10;1.00;;;;;;5186717;28;20044;-32
2024/01/04 02:59:45;;;;;;;0.80;0.80;;;11.10;1.00;;;;;;5203357;28;20022;-32
2024/01/04 03:02:17;;;;;;;0.50;0.50;;;11.10;1.00;;;;;;5194796;28;20037;-32
2024/01/04 03:04:50;;;;;;;2.85;0.55;;;11.10;1.00;;;;;;5157601;28;20218;-32
2024/01/04 03:07:23;;;;;;;0.50;0.50;;;11.00;1.00;;;;;;5171177;28;20064;-32
2024/01/04 03:09:55;;;;;;;0.73;0.73;;;11.00;1.00;;;;;;5189937;28;20225;-32
2024/01/04 03:12:28;;;;;;;0.95;0.90;;;11.00;1.00;;;;;;5188732;28;20037;-32
2024/01/04 03:15:04;;;;;;;0.80;0.80;;;11.10;1.00;;;;;;5206102;28;20037;-32
2024/01/04 03:17:40;;;;;;;0.70;0.70;;;11.00;1.00;;;;;;5206543;28;20264;-32
2024/01/04 03:20:11;;;;;;;0.75;0.65;;;10.90;1.00;;;;;;5206238;28;20037;-32
2024/01/04 03:22:45;;;;;;;0.80;0.80;;;10.80;1.00;;;;;;5189263;28;20033;-32
2024/01/04 03:25:16;;;;;;;0.90;0.90;;;10.70;1.00;;;;;;5206278;28;20266;-32
2024/01/04 03:27:50;;;;;;;1.00;1.00;;;10.60;1.00;;;;;;5201859;28;20030;-36
2024/01/04 03:30:22;;;;;;;0.80;0.80;;;10.50;1.00;;;;;;5183017;28;20032;-33
2024/01/04 03:32:55;;;;;;;0.65;0.65;;;10.40;1.00;;;;;;5187055;28;20356;-32
2024/01/04 03:35:27;;;;;;;2.05;0.75;;;10.40;1.00;;;;;;5206089;28;20075;-32
2024/01/04 03:37:58;;;;;;;0.82;0.68;;;10.40;1.00;;;;;;5201810;28;20035;-30
2024/01/04 03:40:31;;;;;;;0.45;0.45;;;10.50;1.00;;;;;;5186111;28;20040;-30
2024/01/04 03:43:04;;;;;;;1.10;0.80;;;10.40;1.00;;;;;;5186181;28;20042;-32
2024/01/04 03:45:40;;;;;;;0.95;0.70;;;10.30;1.00;;;;;;5203271;28;20033;-32
2024/01/04 03:48:12;;;;;;;0.93;0.80;;;10.40;1.00;;;;;;5205970;28;20210;-32
2024/01/04 03:50:46;;;;;;;0.50;0.50;;;10.40;1.00;;;;;;5208012;28;20025;-32
2024/01/04 03:53:33;;;;;;;;;;;10.40;1.00;;;;;;5201915;28;20224;-32
2024/01/04 03:56:11;;;;;;;0.52;0.52;;;10.40;1.00;;;;;;5206878;28;19909;-31
2024/01/04 03:58:52;;;;;;;0.95;0.88;;;10.40;1.00;;;;;;5188736;28;20033;-31
2024/01/04 04:01:23;;;;;;;0.70;0.70;;;10.50;1.00;;;;;;5209441;28;20033;-36
2024/01/04 04:03:58;;;;;;;1.48;0.77;;;10.40;1.00;;;;;;5207591;28;20037;-32
2024/01/04 04:06:32;;;;;;;1.85;0.95;;;10.40;1.00;;;;;;5220579;28;20033;-32
2024/01/04 04:09:08;;;;;;;0.80;0.80;;;10.30;1.00;;;;;;5207066;28;20072;-32
2024/01/04 04:11:40;;;;;;;1.30;1.20;;;10.40;1.00;;;;;;5207550;28;20025;-31
2024/01/04 04:14:13;;;;;;;0.82;0.82;;;10.40;1.00;;;;;;5205998;28;20033;-31
2024/01/04 04:16:47;;;;;;;0.80;0.80;;;10.40;1.00;;;;;;5195774;28;20029;-31
2024/01/04 04:19:20;;;;;;;0.55;0.55;;;10.40;1.00;;;;;;5206110;28;20047;-31
2024/01/04 04:21:54;;;;;;;0.70;0.70;;;10.50;1.00;;;;;;5194068;28;20277;-31
2024/01/04 04:24:25;;;;;;;1.00;1.00;;;10.40;1.00;;;;;;5207279;28;20040;-32
2024/01/04 04:26:57;;;;;;;1.33;1.10;;;10.40;1.00;;;;;;5189047;28;20345;-30
2024/01/04 04:29:28;;;;;;;0.65;0.65;;;10.60;1.00;;;;;;5207162;28;20044;-30
2024/01/04 04:31:59;;;;;;;0.57;0.57;;;10.70;1.00;;;;;;5203892;28;20034;-32
2024/01/04 04:34:32;;;;;;;0.57;0.57;;;10.70;1.00;;;;;;5207061;28;20039;-31
2024/01/04 04:37:09;;;;;;;1.10;1.00;;;10.70;1.00;;;;;;5206427;28;20026;-29
2024/01/04 04:39:40;;;;;;;0.68;0.68;;;10.80;1.00;;;;;;5206949;28;20055;-30
2024/01/04 04:42:12;;;;;;;0.60;0.60;;;10.70;1.00;;;;;;5176183;28;20034;-33
2024/01/04 04:44:45;;;;;;;0.70;0.70;;;10.70;1.00;;;;;;5209120;28;20221;-32
2024/01/04 04:47:16;;;;;;;0.60;0.60;;;10.70;1.00;;;;;;5208094;28;20044;-31
2024/01/04 04:49:48;;;;;;;0.73;0.63;;;10.70;1.00;;;;;;5210913;28;20290;-32
2024/01/04 04:52:22;;;;;;;0.60;0.60;;;10.60;1.00;;;;;;5176198;28;20045;-31
2024/01/04 04:54:53;;;;;;;;;;;10.70;1.00;;;;;;5210381;28;20032;-31
2024/01/04 04:57:24;;;;;;;0.45;0.45;;;10.70;1.00;;;;;;5225714;28;20268;-31
2024/01/04 04:59:55;;;;;;;2.00;0.80;;;10.70;1.00;;;;;;5190756;28;20378;-34
2024/01/04 05:02:27;;;;;;;0.80;0.80;;;10.70;1.00;;;;;;5206780;28;20055;-31
2024/01/04 05:05:01;;;;;;;0.85;0.85;;;10.70;1.00;;;;;;5181011;28;20056;-31
2024/01/04 05:07:42;;;;;;;1.02;0.77;;;10.80;1.00;;;;;;5190133;28;20030;-31
2024/01/04 05:10:13;;;;;;;0.80;0.80;;;10.80;1.00;;;;;;5210028;28;20322;-30
2024/01/04 05:12:47;;;;;;;1.15;0.80;;;10.70;1.00;;;;;;5209228;28;20060;-30
2024/01/04 05:15:21;;;;;;;;;;;10.70;1.00;;;;;;5207474;28;20027;-31
2024/01/04 05:17:57;;;;;;;1.05;0.73;;;10.70;1.00;;;;;;5210457;28;20266;-31
2024/01/04 05:20:33;;;;;;;0.63;0.63;;;10.80;1.00;;;;;;5210513;28;20029;-31
2024/01/04 05:23:04;;;;;;;0.82;0.82;;;10.70;1.00;;;;;;5210276;28;20192;-31
2024/01/04 05:25:38;;;;;;;0.88;0.73;;;10.70;1.00;;;;;;5209998;28;20033;-32
2024/01/04 05:28:09;;;;;;;0.90;0.90;;;10.70;1.00;;;;;;5209682;28;20033;-31
2024/01/04 05:30:41;;;;;;;0.80;0.80;;;10.70;1.00;;;;;;5207554;28;20210;-31
2024/01/04 05:33:12;;;;;;;0.85;0.77;;;10.80;1.00;;;;;;5210214;28;20227;-31
2024/01/04 05:35:45;;;;;;;7.63;0.77;;;10.70;1.00;;;;;;5210436;28;20041;-31
2024/01/04 05:38:19;;;;;;;0.85;0.85;;;10.60;1.00;;;;;;5191724;28;20233;-31
2024/01/04 05:40:52;;;;;;;0.80;0.80;;;10.60;1.00;;;;;;5209549;28;20045;-31
2024/01/04 05:43:23;;;;;;;2.20;0.77;;;10.50;1.00;;;;;;5209074;28;20285;-31
2024/01/04 05:45:57;;;;;;;0.60;0.47;;;10.50;1.00;;;;;;5207268;28;20029;-31
2024/01/04 05:48:33;;;;;;;2.25;1.30;;;10.50;1.00;;;;;;5194631;28;20356;-31
2024/01/04 05:51:05;;;;;;;1.25;0.68;;;10.50;1.00;;;;;;5209885;28;20039;-30
2024/01/04 05:53:39;;;;;;;2.50;0.68;;;10.50;1.00;;;;;;5187226;28;20233;-31
2024/01/04 05:56:18;;;;;;;0.70;0.70;;;10.60;1.00;;;;;;5176362;28;20044;-30
2024/01/04 05:58:49;;;;;;;0.60;0.60;;;10.70;1.00;;;;;;5177796;28;20044;-35
2024/01/04 06:01:23;;;;;;;0.60;0.60;;;10.60;1.00;;;;;;5167065;28;20226;-31
2024/01/04 06:03:58;;;;;;;0.80;0.70;;;10.60;1.00;;;;;;5187661;28;20060;-31
2024/01/04 06:06:32;;;;;;;1.58;0.85;;;10.50;1.00;;;;;;5189386;28;20034;-31
2024/01/04 06:09:08;;;;;;;0.90;0.90;;;10.50;1.00;;;;;;5178835;28;20041;-31
2024/01/04 06:11:42;;;;;;;0.60;0.60;;;10.40;1.00;;;;;;5173612;28;20029;-31
2024/01/04 06:14:14;;;;;;;1.05;1.05;;;10.40;1.00;;;;;;5188674;28;20318;-31
2024/01/04 06:16:48;;;;;;;0.52;0.52;;;10.40;1.00;;;;;;5175521;28;20048;-31
2024/01/04 06:19:21;;;;;;;0.80;0.80;;;10.50;1.00;;;;;;5177496;28;20364;-31
2024/01/04 06:21:52;;;;;;;0.68;0.68;;;10.40;1.00;;;;;;5174278;28;20051;-31
2024/01/04 06:24:24;;;;;;;0.60;0.60;;;10.30;1.00;;;;;;5188617;28;20322;-32
2024/01/04 06:26:55;;;;;;;1.02;1.02;;;10.30;1.00;;;;;;5170340;28;20034;-32
2024/01/04 06:29:32;;;;;;;0.70;0.70;;;10.30;1.00;;;;;;5181704;28;20036;-32
2024/01/04 06:32:08;;;;;;;2.10;0.80;;;10.10;1.00;;;;;;5185313;28;20361;-32
2024/01/04 06:34:39;;;;;;;0.80;0.80;;;10.10;1.00;;;;;;5170747;28;20318;-32
2024/01/04 06:37:18;;;;;;;0.60;0.60;;;10.00;1.00;;;;;;5188566;28;20348;-32
2024/01/04 06:39:55;;;;;;;0.73;0.68;;;9.90;1.00;;;;;;5174661;28;20038;-32
2024/01/04 06:42:31;;;;;;;1.65;0.70;;;9.90;1.00;;;;;;5168460;28;20233;-30
2024/01/04 06:45:08;;;;;;;1.38;0.55;;;9.90;1.00;;;;;;5168098;28;20034;-30
2024/01/04 06:47:42;;;;;;;0.77;0.77;;;9.90;1.00;;;;;;5164797;28;20239;-30
2024/01/04 06:50:13;;;;;;;0.60;0.60;;;10.00;1.00;;;;;;5186900;28;20029;-32
2024/01/04 06:52:45;;;;;;;0.77;0.77;;;10.00;1.00;;;;;;5186902;28;20048;-32
2024/01/04 06:55:16;;;;;;;1.30;0.80;;;9.90;1.00;;;;;;5183320;28;20030;-32
2024/01/04 06:57:52;;;;;;;0.52;0.52;;;9.90;1.00;;;;;;5166952;28;20038;-31
2024/01/04 07:00:23;;;;;;;0.65;0.63;;;10.00;1.00;;;;;;5168181;28;20337;-31
2024/01/04 07:02:59;;;;;;;1.15;0.88;;;10.00;1.00;;;;;;5187334;28;20037;-31
2024/01/04 07:05:36;;;;;;;0.40;0.38;;;10.10;1.00;;;;;;5187568;28;20036;-32
2024/01/04 07:08:10;;;;;;;0.60;0.60;;;10.20;1.00;;;;;;5189598;28;20026;-31
2024/01/04 07:10:41;;;;;;;0.63;0.63;;;10.20;1.00;;;;;;5154106;28;20426;-31
2024/01/04 07:13:15;;;;;;;0.65;0.50;;;10.20;1.00;;;;;;5188017;28;20206;-31
2024/01/04 07:15:49;;;;;;;0.50;0.50;;;10.20;1.00;;;;;;5183511;28;20243;-32
2024/01/04 07:18:20;;;;;;;;;;;10.30;1.00;;;;;;5180791;28;20263;-32
2024/01/04 07:20:57;;;;;;;0.55;0.55;;;10.40;1.00;;;;;;5186657;28;19923;-32
2024/01/04 07:23:28;;;;;;;1.05;0.80;;;10.40;1.00;;;;;;5187657;28;20053;-31
2024/01/04 07:26:06;;;;;;;0.60;0.60;;;10.40;1.00;;;;;;5187494;28;20030;-31
2024/01/04 07:28:37;;;;;;;0.90;0.70;;;10.40;1.00;;;;;;5187317;28;20219;-31
2024/01/04 07:31:12;;;;;;;1.65;0.77;;;10.40;1.00;;;;;;5189828;28;20037;-32
2024/01/04 07:33:43;;;;;;;2.38;0.70;;;10.40;1.00;;;;;;5183605;28;20258;-32
2024/01/04 07:36:19;;;;;;;0.70;0.70;;;10.40;1.00;;;;;;5190850;28;20043;-32
2024/01/04 07:38:53;;;;;;;0.80;0.80;;;10.40;1.00;;;;;;5191865;28;20372;-32
2024/01/04 07:41:24;;;;;;;0.60;0.60;;;10.40;1.00;;;;;;5186069;28;20042;-32
2024/01/04 07:43:55;;;;;;;0.93;0.60;;;10.40;1.00;;;;;;5185779;28;20030;-30
2024/01/04 07:46:30;;;;;;;1.65;0.60;;;10.50;1.00;;;;;;5181234;28;20040;-30
2024/01/04 07:49:04;;;;;;;0.50;0.50;;;10.50;1.00;;;;;;5182991;28;20037;-31
2024/01/04 07:51:35;;;;;;;0.60;0.60;;;10.50;1.00;;;;;;5183363;28;20037;-30
2024/01/04 07:54:08;;;;;;;0.70;0.70;;;10.50;1.00;;;;;;5178829;28;20026;-31
2024/01/04 07:56:39;;;;;;;1.02;0.93;;;10.50;1.00;;;;;;5176918;28;20029;-31
2024/01/04 07:59:10;;;;;;;0.80;0.80;;;10.50;1.00;;;;;;5164763;28;20033;-31
2024/01/04 08:01:41;;;;;;;0.60;0.60;;;10.50;1.00;;;;;;5173104;28;20038;-31
2024/01/04 08:04:13;;;;;;;0.80;0.80;;;10.50;1.00;;;;;;5183519;28;20346;-31
2024/01/04 08:06:44;;;;;;;0.65;0.60;;;10.60;1.00;;;;;;5180739;28;20041;-31
2024/01/04 08:09:15;;;;;;;0.70;0.70;;;10.60;1.00;;;;;;5181164;28;20029;-32
2024/01/04 08:11:47;;;;;;;1.13;0.80;;;10.60;1.00;;;;;;5178521;28;20292;-32
2024/01/04 08:14:18;;;;;;;0.90;0.90;;;10.50;1.00;;;;;;5180031;28;20032;-32
2024/01/04 08:16:50;;;;;;;0.70;0.70;;;10.50;1.00;;;;;;5105491;28;20349;-32
2024/01/04 08:19:22;;;;;;;0.80;0.80;;;10.50;1.00;;;;;;5175692;28;20033;-31
2024/01/04 08:21:53;;;;;;;1.85;1.00;;;10.60;1.00;;;;;;5163854;28;20380;-31
2024/01/04 08:24:24;;;;;;;1.55;0.60;;;10.60;1.00;;;;;;5173562;28;20041;-30
2024/01/04 08:26:58;;;;;;;0.43;0.43;;;10.60;1.00;;;;;;5168141;28;20359;-30
2024/01/04 08:29:31;;;;;;;0.70;0.70;;;10.60;1.00;;;;;;5185293;28;20278;-30
2024/01/04 08:32:05;;;;;;;0.90;0.85;;;10.70;1.00;;;;;;5160392;28;20038;-30
2024/01/04 08:34:41;;;;;;;0.90;0.90;;;10.70;1.00;;;;;;5176210;28;20030;-29
2024/01/04 08:37:18;;;;;;;0.93;0.73;;;10.70;1.00;;;;;;5150879;28;20302;-30
2024/01/04 08:39:50;;;;;;;0.65;0.65;;;10.70;1.00;;;;;;5153459;28;20045;-30
2024/01/04 08:42:26;;;;;;;1.30;0.98;;;10.80;1.00;;;;;;5176230;28;20030;-30
2024/01/04 08:45:00;;;;;;;0.55;0.55;;;10.80;1.00;;;;;;5140391;28;20039;-30
2024/01/04 08:47:34;;;;;;;0.80;0.80;;;10.70;1.00;;;;;;5149927;28;20361;-32
2024/01/04 08:50:09;;;;;;;0.70;0.70;;;10.70;1.00;;;;;;5155861;28;20291;-32
2024/01/04 08:52:40;;;;;;;1.25;1.10;;;10.60;1.00;;;;;;5076574;28;20160;-32
2024/01/04 08:55:18;;;;;;;0.82;0.82;;;10.60;1.00;;;;;;5176223;28;20532;-32
2024/01/04 08:57:49;;;;;;;1.40;1.08;;;10.60;1.00;;;;;;5201894;28;20043;-32
2024/01/04 09:00:23;;;;;;;0.47;0.47;;;10.50;1.00;;;;;;5190505;28;20357;-32
2024/01/04 09:02:57;;;;;;;;;;;10.50;1.00;;;;;;5181383;28;20041;-32
2024/01/04 09:05:33;;;;;;;0.77;0.77;;;10.50;1.00;;;;;;5194310;28;20261;-31
2024/01/04 09:08:05;;;;;;;1.73;0.40;;;10.40;1.00;;;;;;5197647;28;20037;-31
2024/01/04 09:10:37;;;;;;;0.68;0.68;;;10.40;1.00;;;;;;5180754;28;20286;-31
2024/01/04 09:13:08;;;;;;;2.00;1.08;;;10.40;1.00;;;;;;5193046;28;20035;-29
2024/01/04 09:15:40;;;;;;;1.05;0.93;;;10.40;1.00;;;;;;5175480;28;20344;-30
2024/01/04 09:18:13;;;;;;;0.70;0.70;;;10.40;1.00;;;;;;5190155;28;20228;-30
2024/01/04 09:20:48;;;;;;;0.88;0.88;;;10.50;1.00;;;;;;5189513;28;20041;-30
2024/01/04 09:23:19;;;;;;;1.17;1.13;;;10.60;1.00;;;;;;5181106;28;20040;-30
2024/01/04 09:25:52;;;;;;;0.90;0.90;;;10.50;1.00;;;;;;5189323;28;20056;-30
2024/01/04 09:28:26;;;;;;;0.70;0.70;;;10.60;1.00;;;;;;5191211;28;20241;-35
2024/01/04 09:30:58;;;;;;;;;;;10.70;1.00;;;;;;5174596;28;20038;-31
2024/01/04 09:33:29;;;;;;;0.90;0.90;;;10.60;1.00;;;;;;5167044;28;20229;-31
2024/01/04 09:36:00;;;;;;;0.60;0.60;;;10.70;1.00;;;;;;5193270;28;20033;-31
2024/01/04 09:38:34;;;;;;;1.67;1.35;;;10.70;1.00;;;;;;5189517;28;20045;-30
2024/01/04 09:41:27;;;;;;;0.93;0.93;;;10.90;1.00;;;;;;5198326;28;20037;-30
2024/01/04 09:44:08;;;;;;;0.70;0.70;;;10.90;2.50;;;;;;5209487;28;20040;-30
2024/01/04 09:46:41;;;;;;;0.75;0.70;;;10.90;1.00;;;;;;5189083;28;20295;-31
2024/01/04 09:49:14;;;;;;;0.77;0.77;;;11.10;1.00;;;;;;5199398;28;20055;-31
2024/01/04 09:51:48;;;;;;;0.80;0.80;;;11.10;1.00;;;;;;5192937;28;20368;-31
2024/01/04 09:54:20;;;;;;;0.88;0.88;;;11.10;8.40;;;;;;5189137;28;20037;-31
2024/01/04 09:56:55;;;;;;;0.95;0.80;;;11.10;1.00;;;;;;5187502;28;20361;-30
2024/01/04 09:59:29;;;;;;;0.88;0.85;;;11.20;8.50;;;;;;5195287;28;20219;-31
2024/01/04 10:02:05;;;;;;;0.60;0.60;;;11.30;1.00;;;;;;5168702;28;20084;-34
2024/01/04 10:04:45;;;;;;;0.68;0.68;;;11.30;19.40;;;;;;5190219;28;20029;-31
2024/01/04 10:07:22;;;;;;;0.60;0.60;;;11.40;1.00;;;;;;5171474;28;20050;-31
2024/01/04 10:10:05;;;;;;;1.05;0.85;;;11.40;21.80;;;;;;5193216;28;20038;-31
2024/01/04 10:12:37;;;;;;;0.60;0.60;;;11.50;23.30;;;;;;5191593;28;20115;-31
2024/01/04 10:15:15;;;;;;;0.60;0.60;;;11.50;41.50;;;;;;5200000;28;20065;-31
2024/01/04 10:17:52;;;;;;;0.70;0.60;;;11.40;44.20;;;;;;5184780;28;20266;-31
2024/01/04 10:20:24;;;;;;;0.40;0.40;;;11.60;56.90;;;;;;5192206;28;20040;-31
2024/01/04 10:22:57;;;;;;;0.75;0.75;;;11.70;57.80;;;;;;5187707;28;20056;-31
2024/01/04 10:25:33;;;;;;;0.80;0.80;;;11.50;45.20;;;;;;5194862;28;20234;-31
2024/01/04 10:28:04;;;;;;;1.45;0.93;;;11.60;41.30;;;;;;5180893;28;20208;-31
2024/01/04 10:30:36;;;;;;;1.20;0.90;;;11.20;15.50;;;;;;5180924;28;20026;-31
2024/01/04 10:33:08;;;;;;;0.52;0.52;;;11.10;25.70;;;;;;5171299;28;20046;-30
2024/01/04 10:35:39;;;;;;;0.45;0.45;;;11.10;27.80;;;;;;5166625;28;20071;-36
2024/01/04 10:38:11;;;;;;;0.60;0.60;;;11.30;37.50;;;;;;5161189;28;20121;-30
2024/01/04 10:40:42;;;;;;;0.50;0.50;;;11.30;41.70;;;;;;5194573;28;20340;-30
2024/01/04 10:43:19;;;;;;;0.50;0.50;;;11.40;52.80;;;;;;5190215;28;20282;-30
2024/01/04 10:46:00;;;;;;;0.70;0.70;;;11.30;14.40;;;;;;5196459;28;20252;-31
2024/01/04 10:48:32;;;;;;;1.75;0.77;;;11.40;53.10;;;;;;5187202;28;20072;-31
2024/01/04 10:51:05;;;;;;;0.65;0.60;;;11.50;44.50;;;;;;5163150;28;20041;-31
2024/01/04 10:53:38;;;;;;;0.50;0.50;;;11.80;73.00;;;;;;5194598;28;20037;-37
2024/01/04 10:56:15;;;;;;;0.88;0.80;;;11.90;72.80;;;;;;5182240;28;20044;-30
2024/01/04 10:58:49;;;;;;;0.98;0.90;;;11.90;58.00;;;;;;5166744;28;20045;-30
2024/01/04 11:01:23;;;;;;;1.40;0.90;;;12.00;79.20;;;;;;5187720;28;20380;-33
2024/01/04 11:03:58;;;;;;;0.70;0.70;;;12.20;70.80;;;;;;5158005;28;20768;-32
2024/01/04 11:06:39;;;;;;;0.80;0.80;;;12.20;85.90;;;;;;5183745;28;20042;-32
2024/01/04 11:09:11;;;;;;;0.90;0.90;;;12.20;86.00;;;;;;5170418;28;20364;-34
2024/01/04 11:11:44;;;;;;;0.90;0.90;;;12.10;90.40;;;;;;5183096;28;20037;-31
2024/01/04 11:14:18;;;;;;;0.43;0.43;;;12.30;99.90;;;;;;5184911;28;20219;-31
2024/01/04 11:17:01;;;;;;;0.90;0.90;;;12.20;97.10;;;;;;5178949;28;20042;-31
2024/01/04 11:20:12;;;;;;;1.00;0.52;;;12.10;97.60;;;;;;5163119;28;20040;-31
2024/01/04 11:22:46;;;;;;;0.65;0.65;;;11.90;99.90;;;;;;5181635;28;20048;-31
2024/01/04 11:25:42;;;;;;;0.57;0.57;;;12.20;99.90;;;;;;5183467;28;20037;-30
2024/01/04 11:28:17;;;;;;;0.90;0.90;;;11.80;99.90;;;;;;5179465;28;20034;-32
2024/01/04 11:30:55;;;;;;;0.90;0.90;;;12.00;99.90;;;;;;5180584;28;20249;-32
2024/01/04 11:33:27;;;;;;;2.20;0.90;;;12.10;99.90;;;;;;5148063;28;20030;-32
2024/01/04 11:36:00;;;;;;;0.65;0.63;;;12.10;99.90;;;;;;5184927;28;20022;-31
2024/01/04 11:38:34;;;;;;;0.60;0.60;;;12.10;99.90;;;;;;5183783;28;20033;-31
2024/01/04 11:41:05;;;;;;;0.75;0.75;;;11.80;99.90;;;;;;5185369;28;20263;-31
2024/01/04 11:43:38;;;;;;;0.80;0.80;;;11.80;99.90;;;;;;5184806;28;20051;-31
2024/01/04 11:46:26;;;;;;;0.95;0.70;;;12.10;99.90;;;;;;5179771;28;20025;-31
2024/01/04 11:49:05;;;;;;;0.73;0.73;;;12.10;99.90;;;;;;5163792;28;20050;-31
2024/01/04 11:51:46;;;;;;;0.90;0.90;;;12.00;99.90;;;;;;5178248;28;20030;-30
2024/01/04 11:54:18;;;;;;;0.80;0.80;;;12.30;98.80;;;;;;5184519;28;20032;-30
2024/01/04 11:56:51;;;;;;;0.80;0.80;;;12.30;99.90;;;;;;5183690;28;20034;-30
2024/01/04 11:59:30;;;;;;;0.70;0.70;;;12.10;99.90;;;;;;5184298;28;20025;-35
2024/01/04 12:02:04;;;;;;;0.90;0.90;;;12.30;95.40;;;;;;5180895;28;20044;-30
2024/01/04 12:04:35;;;;;;;;;;;12.20;91.20;;;;;;5169002;28;20340;-31
2024/01/04 12:07:07;;;;;;;0.68;0.65;;;12.10;93.90;;;;;;5168210;28;19927;-31
2024/01/04 12:09:41;;;;;;;2.75;0.77;;;12.40;99.90;;;;;;5179197;28;20395;-31
2024/01/04 12:12:16;;;;;;;2.40;1.20;;;12.40;99.90;;;;;;5173240;28;20076;-31
2024/01/04 12:14:48;;;;;;;1.67;1.33;;;12.30;99.90;;;;;;5184889;28;20034;-31
2024/01/04 12:17:19;;;;;;;0.50;0.50;;;12.60;99.90;;;;;;5167067;28;20049;-31
2024/01/04 12:19:51;;;;;;;0.88;0.80;;;12.80;94.60;;;;;;5181209;28;20365;-31
2024/01/04 12:22:23;;;;;;;1.27;0.95;;;12.60;99.90;;;;;;5152533;28;20054;-31
2024/01/04 12:24:57;;;;;;;0.73;0.73;;;12.50;99.90;;;;;;5181848;28;20045;-32
2024/01/04 12:27:29;;;;;;;1.93;1.27;;;12.30;99.90;;;;;;5151986;28;20352;-30
2024/01/04 12:30:00;;;;;;;0.95;0.90;;;12.10;93.20;;;;;;5177221;28;20392;-31
2024/01/04 12:32:41;;;;;;;0.70;0.70;;;12.10;57.80;;;;;;5162896;28;20046;-32
2024/01/04 12:35:17;;;;;;;1.15;0.95;;;12.10;43.30;;;;;;5181713;28;20026;-32
2024/01/04 12:38:04;;;;;;;0.60;0.60;;;12.30;67.30;;;;;;5147673;28;20046;-32
2024/01/04 12:40:43;;;;;;;1.23;0.93;;;12.40;92.30;;;;;;5177482;28;20045;-32
2024/01/04 12:43:15;;;;;;;0.93;0.90;;;12.30;90.30;;;;;;5166658;28;20056;-31
2024/01/04 12:45:46;;;;;;;1.40;1.10;;;12.30;93.90;;;;;;5171873;28;20044;-31
2024/01/04 12:48:21;;;;;;;1.17;0.88;;;12.60;98.40;;;;;;5173304;28;20056;-31
2024/01/04 12:50:52;;;;;;;;;;;12.50;96.50;;;;;;5179646;28;20029;-31
2024/01/04 12:53:23;;;;;;;1.13;0.82;;;12.40;99.90;;;;;;5128051;28;19921;-31
2024/01/04 12:55:59;;;;;;;3.08;1.10;;;12.60;86.50;;;;;;5176850;28;20050;-31
2024/01/04 12:58:33;;;;;;;1.17;1.08;;;12.50;99.90;;;;;;5171371;28;20044;-31
2024/01/04 13:01:04;;;;;;;1.60;1.50;;;12.50;79.40;;;;;;5174284;28;20032;-31
2024/01/04 13:03:41;;;;;;;1.30;1.20;;;12.40;56.90;;;;;;5172401;28;20277;-31
2024/01/04 13:06:12;;;;;;;1.10;1.00;;;12.50;42.00;;;;;;5166812;28;20042;-31
2024/01/04 13:08:45;;;;;;;0.85;0.80;;;12.30;38.20;;;;;;5175739;28;20078;-30
2024/01/04 13:11:17;;;;;;;1.20;1.10;;;12.50;67.80;;;;;;5185369;28;20042;-30
2024/01/04 13:13:50;;;;;;;2.13;1.10;;;12.60;60.00;;;;;;5172991;28;20058;-31
2024/01/04 13:16:24;;;;;;;0.77;0.77;;;12.90;81.90;;;;;;5183105;28;20025;-31
2024/01/04 13:18:55;;;;;;;0.85;0.82;;;12.60;42.80;;;;;;5161551;28;20057;-30
2024/01/04 13:21:26;;;;;;;1.50;0.70;;;12.60;33.30;;;;;;5148940;28;20038;-30
2024/01/04 13:24:00;;;;;;;1.52;0.90;;;12.50;25.50;;;;;;5174126;28;20041;-31
2024/01/04 13:26:31;;;;;;;1.70;1.10;;;12.40;29.50;;;;;;5185250;28;20279;-31
2024/01/04 13:29:07;;;;;;;1.08;1.08;;;12.40;8.50;;;;;;5159267;28;20045;-32
2024/01/04 13:31:44;;;;;;;1.92;0.98;;;12.60;41.90;;;;;;5180733;28;20343;-34